sensor_id;sensor_type;location;lat;lon;timestamp;P1;durP1;ratioP1;P2;durP2;ratioP2
60306;SDS011;46155;52.364;6.580;2024-03-23T04:00:09;24.03;;;22.47;;
60306;SDS011;46155;52.364;6.580;2024-03-23T04:02:36;30.43;;;27.93;;
60306;SDS011;46155;52.364;6.580;2024-03-23T04:05:04;30.90;;;27.93;;
60306;SDS011;46155;52.364;6.580;2024-03-23T04:07:30;32.53;;;29.80;;
60306;SDS011;46155;52.364;6.580;2024-03-23T04:09:55;35.43;;;31.83;;
60306;SDS011;46155;52.364;6.580;2024-03-23T04:12:21;38.57;;;28.83;;
60306;SDS011;46155;52.364;6.580;2024-03-23T04:14:46;34.40;;;31.30;;
60306;SDS011;46155;52.364;6.580;2024-03-23T04:17:11;35.33;;;32.30;;
60306;SDS011;46155;52.364;6.580;2024-03-23T04:19:37;34.30;;;31.00;;
60306;SDS011;46155;52.364;6.580;2024-03-23T04:22:02;32.60;;;30.13;;
60306;SDS011;46155;52.364;6.580;2024-03-23T04:24:28;33.13;;;30.23;;
60306;SDS011;46155;52.364;6.580;2024-03-23T04:26:54;48.13;;;32.60;;
60306;SDS011;46155;52.364;6.580;2024-03-23T04:29:19;33.57;;;30.87;;
60306;SDS011;46155;52.364;6.580;2024-03-23T04:31:44;35.50;;;32.67;;
60306;SDS011;46155;52.364;6.580;2024-03-23T04:34:09;33.87;;;30.33;;
60306;SDS011;46155;52.364;6.580;2024-03-23T04:36:35;41.97;;;34.60;;
60306;SDS011;46155;52.364;6.580;2024-03-23T04:39:00;33.63;;;30.70;;
60306;SDS011;46155;52.364;6.580;2024-03-23T04:41:27;37.37;;;33.97;;
60306;SDS011;46155;52.364;6.580;2024-03-23T04:43:52;44.63;;;35.60;;
60306;SDS011;46155;52.364;6.580;2024-03-23T04:46:17;38.30;;;34.50;;
60306;SDS011;46155;52.364;6.580;2024-03-23T04:48:43;39.10;;;35.57;;
60306;SDS011;46155;52.364;6.580;2024-03-23T04:51:09;35.23;;;32.40;;
60306;SDS011;46155;52.364;6.580;2024-03-23T04:53:37;40.77;;;36.93;;
60306;SDS011;46155;52.364;6.580;2024-03-23T04:56:02;38.20;;;34.63;;
60306;SDS011;46155;52.364;6.580;2024-03-23T04:58:29;37.30;;;33.73;;
60306;SDS011;46155;52.364;6.580;2024-03-23T05:00:55;37.83;;;34.33;;
60306;SDS011;46155;52.364;6.580;2024-03-23T05:03:20;46.23;;;31.70;;
60306;SDS011;46155;52.364;6.580;2024-03-23T05:05:46;36.53;;;33.10;;
60306;SDS011;46155;52.364;6.580;2024-03-23T05:08:13;34.17;;;31.70;;
60306;SDS011;46155;52.364;6.580;2024-03-23T05:10:39;36.47;;;33.27;;
60306;SDS011;46155;52.364;6.580;2024-03-23T05:13:04;34.63;;;31.33;;
60306;SDS011;46155;52.364;6.580;2024-03-23T05:15:29;35.33;;;32.10;;
60306;SDS011;46155;52.364;6.580;2024-03-23T05:17:55;43.20;;;39.60;;
60306;SDS011;46155;52.364;6.580;2024-03-23T05:20:20;40.30;;;36.67;;
60306;SDS011;46155;52.364;6.580;2024-03-23T05:22:46;30.30;;;28.03;;
60306;SDS011;46155;52.364;6.580;2024-03-23T05:25:11;43.33;;;28.13;;
60306;SDS011;46155;52.364;6.580;2024-03-23T05:27:37;32.37;;;29.57;;
60306;SDS011;46155;52.364;6.580;2024-03-23T05:30:02;31.60;;;28.97;;
60306;SDS011;46155;52.364;6.580;2024-03-23T05:32:28;29.80;;;27.20;;
60306;SDS011;46155;52.364;6.580;2024-03-23T05:34:54;32.80;;;30.13;;
60306;SDS011;46155;52.364;6.580;2024-03-23T05:37:23;42.10;;;28.83;;
60306;SDS011;46155;52.364;6.580;2024-03-23T05:39:48;31.73;;;28.40;;
60306;SDS011;46155;52.364;6.580;2024-03-23T05:42:17;32.53;;;28.97;;
60306;SDS011;46155;52.364;6.580;2024-03-23T05:44:44;30.43;;;28.10;;
60306;SDS011;46155;52.364;6.580;2024-03-23T05:47:10;31.07;;;27.83;;
60306;SDS011;46155;52.364;6.580;2024-03-23T05:49:36;36.50;;;29.87;;
60306;SDS011;46155;52.364;6.580;2024-03-23T05:52:02;35.67;;;30.63;;
60306;SDS011;46155;52.364;6.580;2024-03-23T05:54:29;32.70;;;30.50;;
60306;SDS011;46155;52.364;6.580;2024-03-23T05:56:54;33.60;;;31.07;;
60306;SDS011;46155;52.364;6.580;2024-03-23T05:59:20;35.40;;;31.80;;
60306;SDS011;46155;52.364;6.580;2024-03-23T06:01:46;33.43;;;30.67;;
60306;SDS011;46155;52.364;6.580;2024-03-23T06:04:12;34.20;;;30.70;;
60306;SDS011;46155;52.364;6.580;2024-03-23T06:06:39;28.53;;;26.67;;
60306;SDS011;46155;52.364;6.580;2024-03-23T06:09:04;34.17;;;31.00;;
60306;SDS011;46155;52.364;6.580;2024-03-23T06:11:30;33.10;;;30.17;;
60306;SDS011;46155;52.364;6.580;2024-03-23T06:13:55;32.83;;;29.53;;
60306;SDS011;46155;52.364;6.580;2024-03-23T06:16:21;31.13;;;28.60;;
60306;SDS011;46155;52.364;6.580;2024-03-23T06:18:49;32.50;;;29.73;;
60306;SDS011;46155;52.364;6.580;2024-03-23T06:21:15;33.40;;;30.30;;
60306;SDS011;46155;52.364;6.580;2024-03-23T06:23:41;28.77;;;26.77;;
60306;SDS011;46155;52.364;6.580;2024-03-23T06:26:15;31.87;;;29.67;;
60306;SDS011;46155;52.364;6.580;2024-03-23T06:28:41;34.10;;;30.90;;
60306;SDS011;46155;52.364;6.580;2024-03-23T06:31:08;33.87;;;31.57;;
60306;SDS011;46155;52.364;6.580;2024-03-23T06:33:34;32.33;;;30.17;;
60306;SDS011;46155;52.364;6.580;2024-03-23T06:36:00;31.67;;;28.93;;
60306;SDS011;46155;52.364;6.580;2024-03-23T06:38:25;29.97;;;23.63;;
60306;SDS011;46155;52.364;6.580;2024-03-23T06:40:50;28.10;;;25.20;;
60306;SDS011;46155;52.364;6.580;2024-03-23T06:43:17;29.30;;;26.83;;
60306;SDS011;46155;52.364;6.580;2024-03-23T06:45:43;31.67;;;23.23;;
60306;SDS011;46155;52.364;6.580;2024-03-23T06:48:08;27.97;;;25.13;;
60306;SDS011;46155;52.364;6.580;2024-03-23T06:50:34;25.30;;;22.70;;
60306;SDS011;46155;52.364;6.580;2024-03-23T06:52:59;22.33;;;20.83;;
60306;SDS011;46155;52.364;6.580;2024-03-23T06:55:26;20.83;;;19.07;;
60306;SDS011;46155;52.364;6.580;2024-03-23T06:57:52;22.33;;;20.30;;
60306;SDS011;46155;52.364;6.580;2024-03-23T07:00:18;21.67;;;15.80;;
60306;SDS011;46155;52.364;6.580;2024-03-23T07:02:43;13.33;;;12.37;;
60306;SDS011;46155;52.364;6.580;2024-03-23T07:05:09;14.40;;;13.03;;
60306;SDS011;46155;52.364;6.580;2024-03-23T07:07:35;11.57;;;10.10;;
60306;SDS011;46155;52.364;6.580;2024-03-23T07:10:01;11.53;;;10.50;;
60306;SDS011;46155;52.364;6.580;2024-03-23T07:12:26;11.10;;;10.30;;
60306;SDS011;46155;52.364;6.580;2024-03-23T07:14:51;10.57;;;9.97;;
60306;SDS011;46155;52.364;6.580;2024-03-23T07:17:17;9.00;;;8.50;;
60306;SDS011;46155;52.364;6.580;2024-03-23T07:19:43;12.40;;;9.33;;
60306;SDS011;46155;52.364;6.580;2024-03-23T07:22:08;10.53;;;9.83;;
60306;SDS011;46155;52.364;6.580;2024-03-23T07:24:34;9.40;;;8.90;;
60306;SDS011;46155;52.364;6.580;2024-03-23T07:26:59;10.17;;;8.63;;
60306;SDS011;46155;52.364;6.580;2024-03-23T07:29:25;9.13;;;8.63;;
60306;SDS011;46155;52.364;6.580;2024-03-23T07:31:50;9.07;;;8.50;;
60306;SDS011;46155;52.364;6.580;2024-03-23T07:34:15;10.27;;;9.57;;
60306;SDS011;46155;52.364;6.580;2024-03-23T07:36:41;9.30;;;8.80;;
60306;SDS011;46155;52.364;6.580;2024-03-23T07:39:06;8.07;;;7.40;;
60306;SDS011;46155;52.364;6.580;2024-03-23T07:41:32;7.70;;;7.40;;
60306;SDS011;46155;52.364;6.580;2024-03-23T07:43:58;9.40;;;8.70;;
60306;SDS011;46155;52.364;6.580;2024-03-23T07:46:23;8.60;;;8.17;;
60306;SDS011;46155;52.364;6.580;2024-03-23T07:48:50;11.03;;;10.23;;
60306;SDS011;46155;52.364;6.580;2024-03-23T07:51:20;12.90;;;11.80;;
60306;SDS011;46155;52.364;6.580;2024-03-23T07:53:46;13.37;;;12.67;;
60306;SDS011;46155;52.364;6.580;2024-03-23T07:56:13;11.50;;;10.50;;
60306;SDS011;46155;52.364;6.580;2024-03-23T07:58:40;8.83;;;8.40;;
60306;SDS011;46155;52.364;6.580;2024-03-23T08:03:34;11.13;;;10.50;;
60306;SDS011;46155;52.364;6.580;2024-03-23T08:06:21;10.57;;;9.73;;
60306;SDS011;46155;52.364;6.580;2024-03-23T08:08:48;9.67;;;8.97;;
60306;SDS011;46155;52.364;6.580;2024-03-23T08:11:16;11.10;;;10.17;;
60306;SDS011;46155;52.364;6.580;2024-03-23T08:13:42;13.33;;;12.23;;
60306;SDS011;46155;52.364;6.580;2024-03-23T08:16:09;11.37;;;10.33;;
60306;SDS011;46155;52.364;6.580;2024-03-23T08:18:35;12.13;;;11.33;;
60306;SDS011;46155;52.364;6.580;2024-03-23T08:21:04;10.63;;;9.83;;
60306;SDS011;46155;52.364;6.580;2024-03-23T08:23:31;11.20;;;10.53;;
60306;SDS011;46155;52.364;6.580;2024-03-23T08:26:02;9.97;;;9.37;;
60306;SDS011;46155;52.364;6.580;2024-03-23T08:28:31;23.10;;;12.00;;
60306;SDS011;46155;52.364;6.580;2024-03-23T08:30:56;15.57;;;9.80;;
60306;SDS011;46155;52.364;6.580;2024-03-23T08:33:22;12.63;;;10.90;;
60306;SDS011;46155;52.364;6.580;2024-03-23T08:35:57;10.80;;;9.90;;
60306;SDS011;46155;52.364;6.580;2024-03-23T08:38:24;11.47;;;10.30;;
60306;SDS011;46155;52.364;6.580;2024-03-23T08:40:59;14.17;;;11.60;;
60306;SDS011;46155;52.364;6.580;2024-03-23T08:43:29;10.43;;;9.43;;
60306;SDS011;46155;52.364;6.580;2024-03-23T08:46:06;22.53;;;10.40;;
60306;SDS011;46155;52.364;6.580;2024-03-23T08:48:36;13.47;;;10.97;;
60306;SDS011;46155;52.364;6.580;2024-03-23T08:51:03;11.13;;;10.07;;
60306;SDS011;46155;52.364;6.580;2024-03-23T08:53:30;12.30;;;9.20;;
60306;SDS011;46155;52.364;6.580;2024-03-23T08:55:56;12.43;;;9.23;;
60306;SDS011;46155;52.364;6.580;2024-03-23T08:58:25;12.27;;;11.07;;
60306;SDS011;46155;52.364;6.580;2024-03-23T09:00:51;10.53;;;9.63;;
60306;SDS011;46155;52.364;6.580;2024-03-23T09:03:17;10.03;;;9.37;;
60306;SDS011;46155;52.364;6.580;2024-03-23T09:05:42;18.57;;;9.93;;
60306;SDS011;46155;52.364;6.580;2024-03-23T09:08:08;15.10;;;9.33;;
60306;SDS011;46155;52.364;6.580;2024-03-23T09:10:38;10.10;;;9.20;;
60306;SDS011;46155;52.364;6.580;2024-03-23T09:13:04;9.23;;;8.60;;
60306;SDS011;46155;52.364;6.580;2024-03-23T09:15:29;10.03;;;9.30;;
60306;SDS011;46155;52.364;6.580;2024-03-23T09:17:54;10.20;;;9.47;;
60306;SDS011;46155;52.364;6.580;2024-03-23T09:20:19;12.53;;;9.73;;
60306;SDS011;46155;52.364;6.580;2024-03-23T09:22:45;14.17;;;8.97;;
60306;SDS011;46155;52.364;6.580;2024-03-23T09:25:10;8.50;;;8.00;;
60306;SDS011;46155;52.364;6.580;2024-03-23T09:27:35;9.50;;;8.80;;
60306;SDS011;46155;52.364;6.580;2024-03-23T09:30:01;8.87;;;8.37;;
60306;SDS011;46155;52.364;6.580;2024-03-23T09:32:26;10.77;;;10.17;;
60306;SDS011;46155;52.364;6.580;2024-03-23T09:34:51;11.53;;;9.43;;
60306;SDS011;46155;52.364;6.580;2024-03-23T09:37:16;9.97;;;9.27;;
60306;SDS011;46155;52.364;6.580;2024-03-23T09:39:42;11.47;;;10.67;;
60306;SDS011;46155;52.364;6.580;2024-03-23T09:42:07;11.03;;;10.03;;
60306;SDS011;46155;52.364;6.580;2024-03-23T09:44:32;9.90;;;9.07;;
60306;SDS011;46155;52.364;6.580;2024-03-23T09:46:58;9.77;;;9.13;;
60306;SDS011;46155;52.364;6.580;2024-03-23T09:49:23;11.07;;;9.77;;
60306;SDS011;46155;52.364;6.580;2024-03-23T09:51:49;24.37;;;11.03;;
60306;SDS011;46155;52.364;6.580;2024-03-23T09:54:16;8.63;;;7.80;;
60306;SDS011;46155;52.364;6.580;2024-03-23T09:56:41;17.00;;;15.60;;
60306;SDS011;46155;52.364;6.580;2024-03-23T09:59:07;9.37;;;8.70;;
60306;SDS011;46155;52.364;6.580;2024-03-23T10:01:32;14.57;;;11.03;;
60306;SDS011;46155;52.364;6.580;2024-03-23T10:03:58;14.57;;;10.47;;
60306;SDS011;46155;52.364;6.580;2024-03-23T10:06:23;10.33;;;9.03;;
60306;SDS011;46155;52.364;6.580;2024-03-23T10:08:52;11.83;;;11.03;;
60306;SDS011;46155;52.364;6.580;2024-03-23T10:11:20;13.47;;;12.50;;
60306;SDS011;46155;52.364;6.580;2024-03-23T10:13:46;11.70;;;10.60;;
60306;SDS011;46155;52.364;6.580;2024-03-23T10:16:12;10.90;;;9.83;;
60306;SDS011;46155;52.364;6.580;2024-03-23T10:18:45;18.80;;;11.47;;
60306;SDS011;46155;52.364;6.580;2024-03-23T10:21:10;14.33;;;10.70;;
60306;SDS011;46155;52.364;6.580;2024-03-23T10:23:40;10.53;;;9.77;;
60306;SDS011;46155;52.364;6.580;2024-03-23T10:26:19;12.10;;;11.10;;
60306;SDS011;46155;52.364;6.580;2024-03-23T10:31:23;12.77;;;12.00;;
60306;SDS011;46155;52.364;6.580;2024-03-23T10:33:48;12.53;;;11.40;;
60306;SDS011;46155;52.364;6.580;2024-03-23T10:36:14;10.80;;;10.30;;
60306;SDS011;46155;52.364;6.580;2024-03-23T10:38:41;11.13;;;10.43;;
60306;SDS011;46155;52.364;6.580;2024-03-23T10:41:08;12.53;;;11.80;;
60306;SDS011;46155;52.364;6.580;2024-03-23T10:43:35;9.57;;;8.97;;
60306;SDS011;46155;52.364;6.580;2024-03-23T10:46:01;9.40;;;8.77;;
60306;SDS011;46155;52.364;6.580;2024-03-23T10:48:27;9.67;;;9.20;;
60306;SDS011;46155;52.364;6.580;2024-03-23T10:50:52;9.20;;;8.33;;
60306;SDS011;46155;52.364;6.580;2024-03-23T10:53:18;8.77;;;8.27;;
60306;SDS011;46155;52.364;6.580;2024-03-23T10:55:47;10.90;;;10.20;;
60306;SDS011;46155;52.364;6.580;2024-03-23T10:58:14;10.73;;;9.97;;
60306;SDS011;46155;52.364;6.580;2024-03-23T11:00:40;10.53;;;9.70;;
60306;SDS011;46155;52.364;6.580;2024-03-23T11:03:29;20.93;;;8.63;;
60306;SDS011;46155;52.364;6.580;2024-03-23T11:06:05;9.60;;;9.00;;
60306;SDS011;46155;52.364;6.580;2024-03-23T11:11:22;10.33;;;9.63;;
60306;SDS011;46155;52.364;6.580;2024-03-23T11:13:53;10.13;;;9.43;;
60306;SDS011;46155;52.364;6.580;2024-03-23T11:16:26;16.07;;;9.67;;
60306;SDS011;46155;52.364;6.580;2024-03-23T11:21:59;10.93;;;10.33;;
60306;SDS011;46155;52.364;6.580;2024-03-23T11:24:24;10.90;;;10.17;;
60306;SDS011;46155;52.364;6.580;2024-03-23T11:26:49;21.10;;;19.90;;
60306;SDS011;46155;52.364;6.580;2024-03-23T11:29:15;14.37;;;13.47;;
60306;SDS011;46155;52.364;6.580;2024-03-23T11:31:45;20.53;;;10.10;;
60306;SDS011;46155;52.364;6.580;2024-03-23T11:34:17;10.07;;;9.47;;
60306;SDS011;46155;52.364;6.580;2024-03-23T11:36:44;14.87;;;9.73;;
60306;SDS011;46155;52.364;6.580;2024-03-23T11:39:13;11.93;;;11.27;;
60306;SDS011;46155;52.364;6.580;2024-03-23T11:41:47;9.90;;;9.40;;
60306;SDS011;46155;52.364;6.580;2024-03-23T11:44:14;10.43;;;9.40;;
60306;SDS011;46155;52.364;6.580;2024-03-23T11:46:43;10.40;;;9.63;;
60306;SDS011;46155;52.364;6.580;2024-03-23T11:49:24;9.83;;;8.87;;
60306;SDS011;46155;52.364;6.580;2024-03-23T11:51:49;9.23;;;8.63;;
60306;SDS011;46155;52.364;6.580;2024-03-23T11:54:16;9.97;;;9.37;;
60306;SDS011;46155;52.364;6.580;2024-03-23T11:56:57;9.47;;;8.97;;
60306;SDS011;46155;52.364;6.580;2024-03-23T11:59:33;9.80;;;9.20;;
60306;SDS011;46155;52.364;6.580;2024-03-23T12:01:59;9.73;;;8.97;;
60306;SDS011;46155;52.364;6.580;2024-03-23T12:04:28;10.77;;;10.07;;
60306;SDS011;46155;52.364;6.580;2024-03-23T12:09:45;10.00;;;9.50;;
60306;SDS011;46155;52.364;6.580;2024-03-23T12:12:17;11.07;;;10.37;;
60306;SDS011;46155;52.364;6.580;2024-03-23T12:15:00;10.60;;;9.70;;
60306;SDS011;46155;52.364;6.580;2024-03-23T12:17:27;30.97;;;28.27;;
60306;SDS011;46155;52.364;6.580;2024-03-23T12:19:52;9.30;;;8.60;;
60306;SDS011;46155;52.364;6.580;2024-03-23T12:22:20;10.93;;;10.33;;
60306;SDS011;46155;52.364;6.580;2024-03-23T12:24:47;9.67;;;9.10;;
60306;SDS011;46155;52.364;6.580;2024-03-23T12:27:12;10.37;;;9.77;;
60306;SDS011;46155;52.364;6.580;2024-03-23T12:29:38;9.50;;;9.00;;
60306;SDS011;46155;52.364;6.580;2024-03-23T12:32:04;9.90;;;9.40;;
60306;SDS011;46155;52.364;6.580;2024-03-23T12:34:37;9.83;;;9.33;;
60306;SDS011;46155;52.364;6.580;2024-03-23T12:37:03;9.40;;;8.63;;
60306;SDS011;46155;52.364;6.580;2024-03-23T12:39:28;8.50;;;8.10;;
60306;SDS011;46155;52.364;6.580;2024-03-23T12:41:54;8.30;;;7.90;;
60306;SDS011;46155;52.364;6.580;2024-03-23T12:44:19;8.90;;;8.40;;
60306;SDS011;46155;52.364;6.580;2024-03-23T12:46:46;9.13;;;8.67;;
60306;SDS011;46155;52.364;6.580;2024-03-23T12:49:11;8.97;;;8.37;;
60306;SDS011;46155;52.364;6.580;2024-03-23T12:51:37;8.50;;;7.90;;
60306;SDS011;46155;52.364;6.580;2024-03-23T12:54:03;12.33;;;9.13;;
60306;SDS011;46155;52.364;6.580;2024-03-23T12:56:28;10.47;;;9.27;;
60306;SDS011;46155;52.364;6.580;2024-03-23T12:58:54;9.30;;;8.70;;
60306;SDS011;46155;52.364;6.580;2024-03-23T13:01:22;10.17;;;8.60;;
60306;SDS011;46155;52.364;6.580;2024-03-23T13:03:50;8.97;;;8.37;;
60306;SDS011;46155;52.364;6.580;2024-03-23T13:06:16;10.40;;;9.60;;
60306;SDS011;46155;52.364;6.580;2024-03-23T13:08:44;9.87;;;9.27;;
60306;SDS011;46155;52.364;6.580;2024-03-23T13:11:12;10.40;;;9.73;;
60306;SDS011;46155;52.364;6.580;2024-03-23T13:13:39;10.40;;;9.87;;
60306;SDS011;46155;52.364;6.580;2024-03-23T13:16:05;11.30;;;10.70;;
60306;SDS011;46155;52.364;6.580;2024-03-23T13:18:31;11.50;;;10.43;;
60306;SDS011;46155;52.364;6.580;2024-03-23T13:20:57;13.57;;;12.40;;
60306;SDS011;46155;52.364;6.580;2024-03-23T13:23:22;15.97;;;11.60;;
60306;SDS011;46155;52.364;6.580;2024-03-23T13:25:51;10.50;;;9.83;;
60306;SDS011;46155;52.364;6.580;2024-03-23T13:28:18;12.57;;;10.97;;
60306;SDS011;46155;52.364;6.580;2024-03-23T13:30:53;11.90;;;10.93;;
60306;SDS011;46155;52.364;6.580;2024-03-23T13:33:19;11.60;;;10.07;;
60306;SDS011;46155;52.364;6.580;2024-03-23T13:35:51;11.37;;;10.47;;
60306;SDS011;46155;52.364;6.580;2024-03-23T13:38:17;12.57;;;11.53;;
60306;SDS011;46155;52.364;6.580;2024-03-23T13:40:52;12.43;;;11.40;;
60306;SDS011;46155;52.364;6.580;2024-03-23T13:43:19;12.57;;;11.57;;
60306;SDS011;46155;52.364;6.580;2024-03-23T13:45:44;12.43;;;11.60;;
60306;SDS011;46155;52.364;6.580;2024-03-23T13:48:11;12.47;;;11.67;;
60306;SDS011;46155;52.364;6.580;2024-03-23T13:50:37;13.07;;;11.70;;
60306;SDS011;46155;52.364;6.580;2024-03-23T13:53:02;10.87;;;10.20;;
60306;SDS011;46155;52.364;6.580;2024-03-23T13:55:27;15.70;;;14.30;;
60306;SDS011;46155;52.364;6.580;2024-03-23T13:57:52;10.57;;;9.77;;
60306;SDS011;46155;52.364;6.580;2024-03-23T14:00:18;11.40;;;10.70;;
60306;SDS011;46155;52.364;6.580;2024-03-23T14:02:44;12.17;;;11.30;;
60306;SDS011;46155;52.364;6.580;2024-03-23T14:05:09;12.00;;;11.10;;
60306;SDS011;46155;52.364;6.580;2024-03-23T14:07:36;10.70;;;9.90;;
60306;SDS011;46155;52.364;6.580;2024-03-23T14:10:04;13.07;;;11.77;;
60306;SDS011;46155;52.364;6.580;2024-03-23T14:12:38;9.43;;;9.03;;
60306;SDS011;46155;52.364;6.580;2024-03-23T14:15:06;15.10;;;11.47;;
60306;SDS011;46155;52.364;6.580;2024-03-23T14:17:32;9.43;;;8.83;;
60306;SDS011;46155;52.364;6.580;2024-03-23T14:19:57;10.60;;;9.70;;
60306;SDS011;46155;52.364;6.580;2024-03-23T14:22:26;10.77;;;10.17;;
60306;SDS011;46155;52.364;6.580;2024-03-23T14:24:52;10.33;;;9.47;;
60306;SDS011;46155;52.364;6.580;2024-03-23T14:27:17;11.67;;;11.07;;
60306;SDS011;46155;52.364;6.580;2024-03-23T14:29:45;9.33;;;8.63;;
60306;SDS011;46155;52.364;6.580;2024-03-23T14:32:11;16.60;;;10.60;;
60306;SDS011;46155;52.364;6.580;2024-03-23T14:34:37;9.90;;;8.80;;
60306;SDS011;46155;52.364;6.580;2024-03-23T14:37:02;11.17;;;10.57;;
60306;SDS011;46155;52.364;6.580;2024-03-23T14:39:28;10.90;;;10.03;;
60306;SDS011;46155;52.364;6.580;2024-03-23T14:41:54;9.40;;;8.90;;
60306;SDS011;46155;52.364;6.580;2024-03-23T14:44:20;10.27;;;9.67;;
60306;SDS011;46155;52.364;6.580;2024-03-23T14:46:45;10.73;;;9.97;;
60306;SDS011;46155;52.364;6.580;2024-03-23T14:49:14;10.87;;;10.13;;
60306;SDS011;46155;52.364;6.580;2024-03-23T14:51:43;10.20;;;9.60;;
60306;SDS011;46155;52.364;6.580;2024-03-23T14:54:08;10.23;;;9.70;;
60306;SDS011;46155;52.364;6.580;2024-03-23T14:56:33;10.80;;;9.97;;
60306;SDS011;46155;52.364;6.580;2024-03-23T14:58:59;11.80;;;11.17;;
60306;SDS011;46155;52.364;6.580;2024-03-23T15:01:25;10.60;;;9.90;;
60306;SDS011;46155;52.364;6.580;2024-03-23T15:03:50;10.73;;;10.10;;
60306;SDS011;46155;52.364;6.580;2024-03-23T15:06:18;17.10;;;10.70;;
60306;SDS011;46155;52.364;6.580;2024-03-23T15:08:43;10.57;;;10.03;;
60306;SDS011;46155;52.364;6.580;2024-03-23T15:11:09;12.23;;;10.10;;
60306;SDS011;46155;52.364;6.580;2024-03-23T15:13:34;10.57;;;10.00;;
60306;SDS011;46155;52.364;6.580;2024-03-23T15:16:00;13.00;;;11.83;;
60306;SDS011;46155;52.364;6.580;2024-03-23T15:18:26;12.57;;;11.67;;
60306;SDS011;46155;52.364;6.580;2024-03-23T15:20:52;16.03;;;15.17;;
60306;SDS011;46155;52.364;6.580;2024-03-23T15:23:18;12.73;;;10.07;;
60306;SDS011;46155;52.364;6.580;2024-03-23T15:25:43;11.17;;;10.57;;
60306;SDS011;46155;52.364;6.580;2024-03-23T15:28:09;10.67;;;10.07;;
60306;SDS011;46155;52.364;6.580;2024-03-23T15:30:34;11.67;;;11.07;;
60306;SDS011;46155;52.364;6.580;2024-03-23T15:33:00;13.43;;;12.43;;
60306;SDS011;46155;52.364;6.580;2024-03-23T15:35:25;10.50;;;9.53;;
60306;SDS011;46155;52.364;6.580;2024-03-23T15:37:50;9.57;;;9.07;;
60306;SDS011;46155;52.364;6.580;2024-03-23T15:40:16;10.13;;;9.53;;
60306;SDS011;46155;52.364;6.580;2024-03-23T15:42:41;11.40;;;10.57;;
60306;SDS011;46155;52.364;6.580;2024-03-23T15:45:07;9.57;;;8.97;;
60306;SDS011;46155;52.364;6.580;2024-03-23T15:47:33;13.67;;;10.37;;
60306;SDS011;46155;52.364;6.580;2024-03-23T15:50:00;11.33;;;10.27;;
60306;SDS011;46155;52.364;6.580;2024-03-23T15:52:25;21.03;;;10.80;;
60306;SDS011;46155;52.364;6.580;2024-03-23T15:54:50;9.87;;;9.33;;
60306;SDS011;46155;52.364;6.580;2024-03-23T15:57:17;11.10;;;10.47;;
60306;SDS011;46155;52.364;6.580;2024-03-23T15:59:43;18.87;;;9.50;;
60306;SDS011;46155;52.364;6.580;2024-03-23T16:02:09;10.40;;;9.43;;
60306;SDS011;46155;52.364;6.580;2024-03-23T16:04:34;9.63;;;9.07;;
60306;SDS011;46155;52.364;6.580;2024-03-23T16:07:00;10.20;;;9.50;;
60306;SDS011;46155;52.364;6.580;2024-03-23T16:09:26;10.27;;;9.67;;
60306;SDS011;46155;52.364;6.580;2024-03-23T16:11:53;21.73;;;10.47;;
60306;SDS011;46155;52.364;6.580;2024-03-23T16:14:18;10.50;;;9.57;;
60306;SDS011;46155;52.364;6.580;2024-03-23T16:16:43;9.93;;;9.30;;
60306;SDS011;46155;52.364;6.580;2024-03-23T16:19:09;9.10;;;8.70;;
60306;SDS011;46155;52.364;6.580;2024-03-23T16:21:34;10.67;;;9.97;;
60306;SDS011;46155;52.364;6.580;2024-03-23T16:23:59;8.60;;;8.20;;
60306;SDS011;46155;52.364;6.580;2024-03-23T16:26:24;11.17;;;10.30;;
60306;SDS011;46155;52.364;6.580;2024-03-23T16:28:50;10.10;;;9.50;;
60306;SDS011;46155;52.364;6.580;2024-03-23T16:31:15;10.60;;;10.00;;
60306;SDS011;46155;52.364;6.580;2024-03-23T16:33:41;9.87;;;9.37;;
60306;SDS011;46155;52.364;6.580;2024-03-23T16:36:10;9.57;;;9.07;;
60306;SDS011;46155;52.364;6.580;2024-03-23T16:38:40;10.47;;;9.87;;
60306;SDS011;46155;52.364;6.580;2024-03-23T16:41:09;12.17;;;10.30;;
60306;SDS011;46155;52.364;6.580;2024-03-23T16:43:40;9.63;;;9.13;;
60306;SDS011;46155;52.364;6.580;2024-03-23T16:46:07;10.47;;;9.60;;
60306;SDS011;46155;52.364;6.580;2024-03-23T16:48:36;12.63;;;9.93;;
60306;SDS011;46155;52.364;6.580;2024-03-23T16:51:02;9.13;;;8.70;;
60306;SDS011;46155;52.364;6.580;2024-03-23T16:53:28;9.17;;;8.77;;
60306;SDS011;46155;52.364;6.580;2024-03-23T16:55:56;13.93;;;11.00;;
60306;SDS011;46155;52.364;6.580;2024-03-23T16:58:23;10.47;;;9.37;;
60306;SDS011;46155;52.364;6.580;2024-03-23T17:00:49;10.23;;;9.30;;
60306;SDS011;46155;52.364;6.580;2024-03-23T17:03:15;9.93;;;9.03;;
60306;SDS011;46155;52.364;6.580;2024-03-23T17:05:40;10.50;;;9.90;;
60306;SDS011;46155;52.364;6.580;2024-03-23T17:08:07;9.63;;;9.13;;
60306;SDS011;46155;52.364;6.580;2024-03-23T17:10:33;9.60;;;9.10;;
60306;SDS011;46155;52.364;6.580;2024-03-23T17:12:58;9.53;;;8.97;;
60306;SDS011;46155;52.364;6.580;2024-03-23T17:15:24;9.97;;;9.33;;
60306;SDS011;46155;52.364;6.580;2024-03-23T17:17:50;10.20;;;9.30;;
60306;SDS011;46155;52.364;6.580;2024-03-23T17:20:15;11.23;;;10.00;;
60306;SDS011;46155;52.364;6.580;2024-03-23T17:22:41;9.80;;;9.00;;
60306;SDS011;46155;52.364;6.580;2024-03-23T17:25:07;9.37;;;8.87;;
60306;SDS011;46155;52.364;6.580;2024-03-23T17:27:32;12.53;;;11.53;;
60306;SDS011;46155;52.364;6.580;2024-03-23T17:29:58;11.00;;;10.20;;
60306;SDS011;46155;52.364;6.580;2024-03-23T17:32:23;11.27;;;10.67;;
60306;SDS011;46155;52.364;6.580;2024-03-23T17:34:48;11.50;;;10.73;;
60306;SDS011;46155;52.364;6.580;2024-03-23T17:37:15;10.20;;;9.67;;
60306;SDS011;46155;52.364;6.580;2024-03-23T17:39:41;11.47;;;10.73;;
60306;SDS011;46155;52.364;6.580;2024-03-23T17:42:06;15.17;;;10.47;;
60306;SDS011;46155;52.364;6.580;2024-03-23T17:44:31;9.43;;;8.83;;
60306;SDS011;46155;52.364;6.580;2024-03-23T17:46:57;9.87;;;9.27;;
60306;SDS011;46155;52.364;6.580;2024-03-23T17:49:22;10.30;;;9.60;;
60306;SDS011;46155;52.364;6.580;2024-03-23T17:51:48;14.47;;;13.67;;
60306;SDS011;46155;52.364;6.580;2024-03-23T17:54:13;13.53;;;12.83;;
60306;SDS011;46155;52.364;6.580;2024-03-23T17:56:39;11.27;;;10.67;;
60306;SDS011;46155;52.364;6.580;2024-03-23T17:59:04;13.73;;;12.67;;
60306;SDS011;46155;52.364;6.580;2024-03-23T18:01:29;21.87;;;20.40;;
60306;SDS011;46155;52.364;6.580;2024-03-23T18:03:55;19.03;;;17.90;;
60306;SDS011;46155;52.364;6.580;2024-03-23T18:06:21;19.67;;;18.43;;
60306;SDS011;46155;52.364;6.580;2024-03-23T18:08:47;20.20;;;19.00;;
60306;SDS011;46155;52.364;6.580;2024-03-23T18:11:12;18.33;;;17.33;;
60306;SDS011;46155;52.364;6.580;2024-03-23T18:13:38;20.87;;;19.63;;
60306;SDS011;46155;52.364;6.580;2024-03-23T18:16:04;18.70;;;17.70;;
60306;SDS011;46155;52.364;6.580;2024-03-23T18:18:30;19.53;;;16.27;;
60306;SDS011;46155;52.364;6.580;2024-03-23T18:20:55;17.27;;;16.17;;
60306;SDS011;46155;52.364;6.580;2024-03-23T18:23:20;18.03;;;16.60;;
60306;SDS011;46155;52.364;6.580;2024-03-23T18:25:52;20.10;;;18.70;;
60306;SDS011;46155;52.364;6.580;2024-03-23T18:28:21;17.40;;;16.40;;
60306;SDS011;46155;52.364;6.580;2024-03-23T18:30:56;16.93;;;15.93;;
60306;SDS011;46155;52.364;6.580;2024-03-23T18:33:23;24.23;;;18.83;;
60306;SDS011;46155;52.364;6.580;2024-03-23T18:35:49;24.13;;;22.33;;
60306;SDS011;46155;52.364;6.580;2024-03-23T18:38:15;20.73;;;19.47;;
60306;SDS011;46155;52.364;6.580;2024-03-23T18:40:46;21.70;;;20.50;;